Time;durP1;ratioP1;P1;durP2;ratioP2;P2;SDS_P1;SDS_P2;PMS_P1;PMS_P2;Temp;Humidity;BMP_temperature;BMP_pressure;BME280_temperature;BME280_humidity;BME280_pressure;Samples;Min_cycle;Max_cycle;Signal;HPM_P1;HPM_P2
2021/12/21 00:01:48;;;;;;;8.20;3.28;;;;;;;2.57;57.21;100383.56;4395289;32;34350;-74
2021/12/21 00:04:18;;;;;;;5.20;2.40;;;;;;;2.82;56.60;100388.41;4395173;32;34044;-74
2021/12/21 00:06:46;;;;;;;6.47;2.78;;;;;;;2.52;57.14;100392.13;4394701;32;33327;-74
2021/12/21 00:09:14;;;;;;;6.25;2.65;;;;;;;2.22;57.87;100393.03;4394550;32;33384;-74
2021/12/21 00:11:44;;;;;;;8.02;3.00;;;;;;;2.24;57.17;100390.19;4395496;32;35041;-74
2021/12/21 00:17:08;;;;;;;6.25;2.80;;;;;;;2.30;56.42;100397.75;4395483;32;33986;-74
2021/12/21 00:23:19;;;;;;;19.40;7.93;;;;;;;2.28;55.15;100405.16;4395492;32;32942;-75
2021/12/21 00:24:57;;;;;;;12.15;4.25;;;;;;;1.97;55.90;100410.63;4373419;32;32043;-74
2021/12/21 00:27:28;;;;;;;6.07;2.03;;;;;;;1.60;56.79;100396.78;4395155;32;33035;-74
2021/12/21 00:29:56;;;;;;;4.60;1.87;;;;;;;1.59;56.44;100407.75;4394941;32;34552;-74
2021/12/21 00:32:28;;;;;;;3.40;1.52;;;;;;;1.59;56.72;100399.63;4395424;32;34455;-74
2021/12/21 00:34:56;;;;;;;4.93;1.90;;;;;;;1.85;55.92;100416.28;4394270;32;32520;-75
2021/12/21 00:37:28;;;;;;;5.70;1.90;;;;;;;2.16;55.38;100417.97;4394765;32;32899;-75
2021/12/21 00:39:56;;;;;;;5.18;1.90;;;;;;;1.96;55.82;100418.88;4408782;32;33850;-75
2021/12/21 00:42:23;;;;;;;4.75;1.45;;;;;;;1.99;56.01;100418.59;4392120;32;35041;-74
2021/12/21 00:44:51;;;;;;;3.83;1.80;;;;;;;2.10;55.28;100423.91;4392524;32;33786;-74
2021/12/21 00:47:21;;;;;;;6.37;1.90;;;;;;;2.47;54.69;100413.34;4392240;32;33709;-75
2021/12/21 00:49:58;;;;;;;4.85;2.05;;;;;;;2.09;55.31;100421.34;4393412;32;33841;-75
2021/12/21 00:52:28;;;;;;;5.60;1.95;;;;;;;1.50;56.68;100427.47;4393477;32;35186;-75
2021/12/21 00:54:59;;;;;;;9.43;3.63;;;;;;;1.94;55.32;100431.72;4379709;32;34949;-74
2021/12/21 00:57:26;;;;;;;6.17;2.50;;;;;;;1.80;56.04;100427.50;4380212;32;33075;-75
2021/12/21 00:59:54;;;;;;;4.12;1.80;;;;;;;2.17;55.33;100443.19;4392174;32;32147;-75
2021/12/21 01:02:24;;;;;;;5.35;2.05;;;;;;;1.85;55.57;100454.19;4392123;32;35344;-75
2021/12/21 01:04:56;;;;;;;5.30;2.10;;;;;;;1.53;56.82;100444.31;4392028;32;35374;-75
2021/12/21 01:07:34;;;;;;;6.50;1.80;;;;;;;1.57;57.29;100451.16;4392410;32;33301;-75
2021/12/21 01:18:18;;;;;;;5.00;2.20;;;;;;;2.15;55.25;100454.16;4392194;32;33298;-74
2021/12/21 01:20:42;;;;;;;4.75;1.80;;;;;;;2.30;55.27;100466.31;4391779;32;33771;-75
2021/12/21 01:26:09;;;;;;;4.20;1.90;;;;;;;2.19;55.52;100470.97;4368815;32;32670;-75
2021/12/21 01:28:51;;;;;;;5.68;2.08;;;;;;;1.61;56.50;100471.56;4391933;32;31530;-75
2021/12/21 01:36:59;;;;;;;5.43;2.17;;;;;;;1.44;57.30;100460.47;4381327;32;32744;-75
2021/12/21 01:42:27;;;;;;;5.97;2.00;;;;;;;1.33;57.08;100456.81;4381135;32;32240;-75
2021/12/21 01:50:30;;;;;;;6.40;2.50;;;;;;;1.21;57.76;100454.34;4381309;32;31828;-75
2021/12/21 01:52:57;;;;;;;6.60;2.28;;;;;;;1.68;56.65;100462.91;4379310;32;33366;-75
2021/12/21 01:55:28;;;;;;;6.90;2.80;;;;;;;1.82;55.92;100462.56;4367573;32;32963;-75
2021/12/21 01:57:56;;;;;;;5.30;2.30;;;;;;;1.70;56.08;100474.44;4391599;32;34628;-75
2021/12/21 02:00:24;;;;;;;7.03;2.75;;;;;;;1.37;57.17;100460.13;4391669;32;32741;-74
2021/12/21 02:02:55;;;;;;;5.53;2.42;;;;;;;1.60;56.28;100472.53;4391675;32;34469;-74
2021/12/21 02:05:22;;;;;;;5.65;2.40;;;;;;;1.79;55.55;100479.06;4392475;32;34565;-75
2021/12/21 02:07:52;;;;;;;6.27;2.67;;;;;;;1.21;56.25;100471.41;4391495;32;32417;-75
2021/12/21 02:10:20;;;;;;;6.23;2.67;;;;;;;1.31;55.88;100466.06;4379089;32;34018;-75
2021/12/21 02:12:51;;;;;;;5.25;2.33;;;;;;;1.14;56.05;100469.38;4391235;32;33682;-75
2021/12/21 02:15:20;;;;;;;5.75;2.45;;;;;;;1.59;55.18;100465.41;4391346;32;32662;-75
2021/12/21 02:23:05;;;;;;;3.97;1.58;;;;;;;1.36;54.06;100468.38;4391570;32;33683;-75
2021/12/21 02:26:05;;;;;;;8.23;2.12;;;;;;;1.75;53.19;100467.66;4391223;32;34175;-75
2021/12/21 02:31:06;;;;;;;7.47;2.55;;;;;;;1.92;52.21;100467.03;4391184;32;33110;-75
2021/12/21 02:33:37;;;;;;;19.62;5.18;;;;;;;1.79;51.80;100455.56;4391168;32;34504;-75
2021/12/21 02:36:05;;;;;;;5.25;2.37;;;;;;;1.95;51.34;100460.50;4378689;32;35359;-75
2021/12/21 02:38:32;;;;;;;5.30;1.70;;;;;;;1.56;52.04;100467.53;4390927;32;33681;-74
2021/12/21 02:41:00;;;;;;;2.90;1.20;;;;;;;1.53;51.15;100465.09;4392815;32;33377;-75
2021/12/21 02:43:28;;;;;;;3.22;1.35;;;;;;;1.71;50.95;100478.88;4394161;32;34181;-75
2021/12/21 02:45:56;;;;;;;4.13;1.60;;;;;;;1.59;51.09;100481.66;4393853;32;32960;-75
2021/12/21 02:48:23;;;;;;;3.45;1.33;;;;;;;1.51;51.22;100478.75;4393833;32;33956;-75
2021/12/21 02:50:51;;;;;;;3.72;1.48;;;;;;;1.44;51.55;100491.06;4393928;32;31813;-75
2021/12/21 02:53:19;;;;;;;5.22;1.73;;;;;;;1.50;51.69;100501.37;4393226;32;34059;-74
2021/12/21 02:55:46;;;;;;;4.45;1.73;;;;;;;1.69;51.50;100506.06;4393335;32;34294;-74
2021/12/21 02:58:16;;;;;;;3.58;1.37;;;;;;;1.83;51.16;100502.16;4381326;32;33906;-74
2021/12/21 03:00:46;;;;;;;9.30;2.80;;;;;;;1.65;51.25;100501.91;4395890;32;34076;-74
2021/12/21 03:03:17;;;;;;;5.12;1.70;;;;;;;1.45;51.45;100503.59;4383497;32;34202;-74
2021/12/21 03:05:49;;;;;;;8.45;2.35;;;;;;;1.77;50.53;100508.97;4395621;32;34425;-74
2021/12/21 03:11:07;;;;;;;14.63;4.47;;;;;;;2.06;49.75;100519.09;4409320;32;33760;-75
2021/12/21 03:14:03;;;;;;;6.80;2.20;;;;;;;2.16;49.79;100511.87;4397814;32;33917;-75
2021/12/21 03:16:36;;;;;;;3.90;1.65;;;;;;;2.28;49.39;100510.78;4395296;32;33023;-75
2021/12/21 03:19:06;;;;;;;5.60;1.75;;;;;;;2.36;48.73;100515.53;4395580;32;34827;-75
2021/12/21 03:21:35;;;;;;;20.15;5.35;;;;;;;1.94;49.48;100526.44;4395611;32;33067;-75
2021/12/21 03:24:03;;;;;;;9.93;3.03;;;;;;;1.53;50.04;100517.34;4395576;32;34755;-75
2021/12/21 03:26:31;;;;;;;7.40;2.57;;;;;;;2.12;49.49;100527.53;4395277;32;35203;-75
2021/12/21 03:29:00;;;;;;;3.10;1.37;;;;;;;2.47;48.67;100516.28;4395349;32;35012;-75
2021/12/21 03:31:30;;;;;;;4.62;1.77;;;;;;;2.34;48.18;100521.09;4395406;32;32878;-75
2021/12/21 03:34:01;;;;;;;2.78;1.00;;;;;;;2.30;48.17;100523.19;4382978;32;33320;-75
2021/12/21 03:36:28;;;;;;;4.68;1.60;;;;;;;2.16;47.74;100537.09;4395457;32;34506;-75
2021/12/21 03:39:04;;;;;;;3.87;1.30;;;;;;;2.22;47.54;100533.84;4395301;32;33859;-74
2021/12/21 03:41:33;;;;;;;2.92;1.10;;;;;;;1.91;48.11;100538.41;4396019;32;32661;-74
2021/12/21 03:44:03;;;;;;;4.50;1.17;;;;;;;2.04;47.69;100546.28;4395546;32;33805;-74
2021/12/21 03:46:32;;;;;;;5.50;1.50;;;;;;;1.73;48.91;100547.25;4395035;32;34555;-74
2021/12/21 03:49:11;;;;;;;3.70;1.35;;;;;;;1.95;48.13;100536.28;4395552;32;34639;-74
2021/12/21 03:51:39;;;;;;;3.60;1.33;;;;;;;1.97;48.65;100545.97;4394933;32;32783;-75
2021/12/21 03:54:06;;;;;;;3.87;1.55;;;;;;;2.06;47.76;100552.44;4382808;32;33877;-75
2021/12/21 03:56:40;;;;;;;3.80;1.33;;;;;;;1.46;48.85;100545.87;4394999;32;35095;-75
2021/12/21 03:59:10;;;;;;;3.40;1.37;;;;;;;1.53;48.77;100555.19;4395736;32;34802;-75
2021/12/21 04:01:40;;;;;;;2.43;1.20;;;;;;;1.82;48.33;100557.28;4395192;32;33773;-75
2021/12/21 04:04:10;;;;;;;2.17;1.20;;;;;;;1.48;48.47;100562.84;4382853;32;33591;-75
2021/12/21 04:06:38;;;;;;;5.22;1.80;;;;;;;1.93;47.92;100549.09;4395136;32;35115;-75
2021/12/21 04:09:07;;;;;;;3.67;1.42;;;;;;;2.15;47.68;100553.47;4395197;32;32457;-75
2021/12/21 04:11:35;;;;;;;3.85;1.02;;;;;;;1.93;47.83;100554.50;4395109;32;34144;-75
2021/12/21 04:14:03;;;;;;;3.28;1.50;;;;;;;2.20;47.00;100546.66;4395225;32;33563;-75
2021/12/21 04:16:30;;;;;;;5.55;1.60;;;;;;;1.83;48.05;100548.16;4395022;32;32852;-75
2021/12/21 04:18:58;;;;;;;5.93;1.63;;;;;;;2.13;47.90;100550.03;4382554;32;32488;-75
2021/12/21 04:21:27;;;;;;;6.35;2.30;;;;;;;2.04;48.07;100556.25;4382835;32;32086;-74
2021/12/21 04:23:54;;;;;;;5.25;1.70;;;;;;;2.20;47.16;100565.63;4394997;32;32169;-74
2021/12/21 04:26:25;;;;;;;2.65;1.30;;;;;;;2.23;47.63;100562.66;4394893;32;35083;-75
2021/12/21 04:28:53;;;;;;;4.13;1.57;;;;;;;1.89;47.83;100561.19;4395150;32;34195;-75
2021/12/21 04:31:23;;;;;;;4.18;1.62;;;;;;;1.70;48.01;100563.75;4382590;32;33189;-75
2021/12/21 04:33:51;;;;;;;3.70;1.30;;;;;;;1.53;48.27;100565.16;4394932;32;34398;-75
2021/12/21 04:36:18;;;;;;;4.82;1.48;;;;;;;1.76;48.10;100566.78;4394932;32;34289;-75
2021/12/21 04:38:52;;;;;;;3.07;1.30;;;;;;;2.07;47.31;100575.81;4394602;32;32431;-75
2021/12/21 04:41:26;;;;;;;5.05;1.83;;;;;;;1.88;47.50;100578.41;4394815;32;33222;-75
2021/12/21 04:43:59;;;;;;;3.15;1.30;;;;;;;1.66;48.07;100579.37;4382562;32;32420;-75
2021/12/21 04:46:32;;;;;;;4.03;1.80;;;;;;;1.98;47.75;100574.75;4394652;32;35299;-74
2021/12/21 04:49:04;;;;;;;4.47;1.70;;;;;;;1.75;48.13;100588.56;4408598;32;33844;-75
2021/12/21 04:51:35;;;;;;;5.47;1.80;;;;;;;2.07;47.85;100585.78;4395296;32;33960;-74
2021/12/21 04:54:03;;;;;;;2.97;1.25;;;;;;;1.87;47.55;100590.22;4383495;32;33520;-74
2021/12/21 04:56:38;;;;;;;4.40;1.27;;;;;;;1.84;47.72;100585.06;4395144;32;34009;-74
2021/12/21 04:59:06;;;;;;;3.72;1.30;;;;;;;1.79;47.63;100582.75;4382929;32;34692;-74
2021/12/21 05:01:36;;;;;;;4.60;1.70;;;;;;;1.74;47.10;100589.53;4395414;32;31740;-74
2021/12/21 05:04:06;;;;;;;4.37;1.67;;;;;;;1.72;47.25;100591.53;4382726;32;33882;-74
2021/12/21 05:06:37;;;;;;;4.85;1.77;;;;;;;2.04;46.93;100596.87;4395251;32;34940;-74
2021/12/21 05:09:23;;;;;;;3.87;1.67;;;;;;;2.03;46.43;100593.31;4396633;32;33424;-74
2021/12/21 05:11:53;;;;;;;3.27;1.27;;;;;;;2.16;46.12;100602.09;4396067;32;33276;-74
2021/12/21 05:14:21;;;;;;;4.30;1.50;;;;;;;1.99;46.30;100602.69;4394629;32;32343;-74
2021/12/21 05:16:48;;;;;;;6.43;2.08;;;;;;;2.08;46.07;100595.63;4382149;32;33017;-74
2021/12/21 05:19:21;;;;;;;4.07;1.85;;;;;;;1.80;46.37;100606.13;4394872;32;32584;-74
2021/12/21 05:21:49;;;;;;;4.00;1.62;;;;;;;2.00;46.15;100604.38;4394422;32;34005;-74
2021/12/21 05:24:20;;;;;;;5.43;2.13;;;;;;;2.39;45.85;100615.47;4394267;32;32482;-74
2021/12/21 05:26:50;;;;;;;4.50;1.80;;;;;;;2.43;45.58;100628.62;4394316;32;35214;-74
2021/12/21 05:29:20;;;;;;;4.93;1.60;;;;;;;2.34;45.32;100623.16;4394251;32;33994;-74
2021/12/21 05:31:50;;;;;;;3.97;1.33;;;;;;;2.16;45.76;100626.44;4382343;32;33195;-74
2021/12/21 05:34:18;;;;;;;3.95;1.75;;;;;;;1.77;46.09;100627.16;4381803;32;32133;-73
2021/12/21 05:36:46;;;;;;;4.80;1.30;;;;;;;1.99;45.96;100624.34;4394305;32;35191;-74
2021/12/21 05:39:24;;;;;;;3.58;1.62;;;;;;;1.87;45.70;100626.25;4381310;32;33802;-73
2021/12/21 05:41:56;;;;;;;3.97;1.65;;;;;;;2.05;45.46;100618.41;4395700;32;33981;-74
2021/12/21 05:44:25;;;;;;;4.93;2.20;;;;;;;1.91;46.50;100626.87;4394590;32;33627;-74
2021/12/21 05:46:54;;;;;;;11.00;3.67;;;;;;;2.02;45.20;100623.22;4382457;32;34267;-74
2021/12/21 05:49:26;;;;;;;6.50;2.22;;;;;;;1.93;44.74;100625.75;4394157;32;34607;-74
2021/12/21 05:51:54;;;;;;;6.00;2.12;;;;;;;2.34;44.87;100633.97;4394417;32;34094;-74
2021/12/21 05:54:23;;;;;;;7.20;2.17;;;;;;;2.18;44.93;100646.13;4394182;32;33784;-74
2021/12/21 05:56:50;;;;;;;5.28;1.73;;;;;;;2.10;44.50;100643.22;4394330;32;33884;-73
2021/12/21 05:59:19;;;;;;;6.33;1.93;;;;;;;2.15;44.16;100650.97;4394154;32;33944;-73
2021/12/21 06:01:46;;;;;;;6.20;2.15;;;;;;;2.33;43.52;100656.63;4394326;32;33741;-73
2021/12/21 06:04:14;;;;;;;7.18;2.03;;;;;;;2.19;43.56;100663.25;4381667;32;33241;-73
2021/12/21 06:06:42;;;;;;;4.32;1.70;;;;;;;1.64;44.41;100663.38;4381709;32;34318;-73
2021/12/21 06:09:12;;;;;;;5.60;2.08;;;;;;;1.87;44.58;100666.88;4394003;32;34117;-72
2021/12/21 06:11:50;;;;;;;4.57;1.80;;;;;;;2.26;51.15;100670.72;4394347;32;34010;-72
2021/12/21 06:27:41;;;;;;;5.90;2.00;;;;;;;1.78;47.04;100708.22;4406297;32;32843;-72
2021/12/21 06:30:12;;;;;;;5.25;1.80;;;;;;;1.80;47.02;100706.25;4381495;32;33521;-72
2021/12/21 06:32:40;;;;;;;7.10;2.65;;;;;;;1.84;46.78;100709.56;4393710;32;32415;-72
2021/12/21 06:35:15;;;;;;;6.03;2.70;;;;;;;1.69;47.13;100714.41;4395229;32;34591;-72
2021/12/21 06:37:43;;;;;;;11.43;4.78;;;;;;;1.61;47.49;100712.31;4408271;32;34561;-72
2021/12/21 06:40:14;;;;;;;7.90;2.73;;;;;;;1.68;47.40;100718.09;4395634;32;33879;-72
2021/12/21 06:42:46;;;;;;;31.07;13.63;;;;;;;1.96;46.81;100720.19;4383244;32;31890;-73
2021/12/21 06:45:42;;;;;;;14.07;4.80;;;;;;;1.55;48.39;100715.53;4395382;32;33296;-74
2021/12/21 06:51:43;;;;;;;6.62;2.42;;;;;;;0.62;50.38;100725.78;4407974;32;33933;-72
2021/12/21 06:53:57;;;;;;;10.63;2.43;;;;;;;0.46;50.93;100719.00;4407220;32;33350;-72
2021/12/21 06:56:29;;;;;;;6.57;2.73;;;;;;;0.98;49.73;100726.53;4409474;32;33906;-73
2021/12/21 06:58:56;;;;;;;6.53;2.20;;;;;;;1.52;48.63;100723.91;4388631;32;34284;-73
2021/12/21 07:01:26;;;;;;;8.18;2.80;;;;;;;1.63;48.39;100732.00;4391486;32;33583;-72
2021/12/21 07:03:53;;;;;;;12.93;3.45;;;;;;;1.77;48.20;100730.88;4393245;32;32866;-73
2021/12/21 07:06:23;;;;;;;7.80;3.20;;;;;;;1.57;48.37;100729.78;4380355;32;32375;-73
2021/12/21 07:08:59;;;;;;;7.20;3.30;;;;;;;1.66;48.50;100741.72;4391795;32;34465;-73
2021/12/21 07:11:38;;;;;;;;;;;;;;;1.59;48.42;100738.66;4381760;32;34653;-73
2021/12/21 07:19:40;;;;;;;9.68;3.83;;;;;;;1.84;47.83;100736.62;4369980;32;32807;-73
2021/12/21 07:22:07;;;;;;;16.40;5.10;;;;;;;1.78;47.73;100729.03;4394155;32;34051;-73
2021/12/21 07:24:36;;;;;;;11.07;4.68;;;;;;;1.69;48.12;100733.34;4380671;32;33201;-72
2021/12/21 07:27:04;;;;;;;10.00;3.67;;;;;;;1.75;48.04;100735.53;4380666;32;33757;-73
2021/12/21 07:29:32;;;;;;;10.95;3.50;;;;;;;1.62;48.35;100735.69;4380407;32;34505;-72
2021/12/21 07:32:01;;;;;;;9.30;3.10;;;;;;;1.68;48.39;100738.87;4380112;32;34510;-73
2021/12/21 07:34:29;;;;;;;10.75;3.10;;;;;;;1.80;48.26;100743.28;4380871;32;33922;-73
2021/12/21 07:37:06;;;;;;;6.85;2.25;;;;;;;1.90;48.07;100741.53;4368845;32;33860;-73
2021/12/21 07:39:36;;;;;;;6.55;2.78;;;;;;;1.89;48.12;100746.09;4368237;32;34553;-73
2021/12/21 07:42:17;;;;;;;8.30;2.97;;;;;;;1.97;48.23;100750.84;4369002;32;33432;-73
2021/12/21 07:44:46;;;;;;;8.00;3.35;;;;;;;1.78;48.63;100742.56;4380061;32;33514;-73
2021/12/21 07:47:15;;;;;;;12.40;5.22;;;;;;;1.91;48.01;100736.00;4380406;32;33599;-73
2021/12/21 07:49:43;;;;;;;15.88;5.35;;;;;;;2.10;48.21;100740.69;4393787;32;35390;-73
2021/12/21 07:52:14;;;;;;;14.37;5.47;;;;;;;2.06;49.08;100750.06;4380363;32;34500;-73
2021/12/21 07:54:42;;;;;;;12.13;4.82;;;;;;;2.30;48.21;100748.00;4368273;32;33494;-73
2021/12/21 07:57:10;;;;;;;7.40;3.30;;;;;;;2.26;48.29;100740.25;4367609;32;32281;-73
2021/12/21 07:59:39;;;;;;;12.35;5.15;;;;;;;2.17;48.39;100736.47;4368086;32;34840;-73
2021/12/21 08:02:11;;;;;;;11.38;5.55;;;;;;;2.26;48.27;100742.97;4368096;32;32474;-73
2021/12/21 08:04:43;;;;;;;12.40;5.10;;;;;;;2.15;48.59;100737.59;4367835;32;31687;-74
2021/12/21 08:07:19;;;;;;;13.63;4.77;;;;;;;2.28;48.57;100747.28;4368872;32;33628;-73
2021/12/21 08:09:51;;;;;;;13.35;5.75;;;;;;;2.04;48.93;100743.91;4368056;32;32693;-74
2021/12/21 08:12:23;;;;;;;13.43;5.30;;;;;;;2.35;48.43;100749.47;4380718;32;33843;-73
2021/12/21 08:14:52;;;;;;;12.37;4.70;;;;;;;2.16;49.16;100739.31;4380224;32;33098;-73
2021/12/21 08:17:21;;;;;;;13.00;3.97;;;;;;;2.35;48.73;100744.91;4393884;32;33692;-81
2021/12/21 08:19:48;;;;;;;9.82;4.55;;;;;;;2.36;48.69;100753.88;4380289;32;35090;-74
2021/12/21 08:22:19;;;;;;;8.75;3.92;;;;;;;2.33;58.54;100756.84;4380164;32;34074;-74
2021/12/21 08:24:46;;;;;;;8.57;3.47;;;;;;;2.48;51.77;100755.56;4393682;32;33134;-74
2021/12/21 08:27:16;;;;;;;8.43;2.77;;;;;;;2.47;50.33;100756.56;4380160;32;33568;-73
2021/12/21 08:29:46;;;;;;;5.62;2.47;;;;;;;2.47;49.57;100757.41;4380015;32;34525;-73
2021/12/21 08:32:13;;;;;;;5.20;2.10;;;;;;;1.92;49.63;100753.09;4380080;32;34142;-74
2021/12/21 08:34:41;;;;;;;13.25;3.75;;;;;;;1.96;49.68;100759.94;4367901;32;34163;-74
2021/12/21 08:37:09;;;;;;;10.25;3.35;;;;;;;2.15;50.08;100749.28;4367685;32;33631;-74
2021/12/21 08:39:40;;;;;;;6.82;3.15;;;;;;;2.28;49.99;100758.09;4379699;32;33116;-73
2021/12/21 08:42:13;;;;;;;8.43;3.17;;;;;;;2.30;49.46;100755.28;4377192;32;32613;-74
2021/12/21 08:44:45;;;;;;;8.30;3.00;;;;;;;2.55;49.13;100764.88;4364709;32;33979;-74
2021/12/21 08:47:13;;;;;;;6.85;2.75;;;;;;;2.47;49.35;100760.13;4377314;32;34611;-74
2021/12/21 08:49:46;;;;;;;6.75;2.85;;;;;;;2.50;48.90;100767.12;4365101;32;34376;-73
2021/12/21 08:52:16;;;;;;;6.78;2.80;;;;;;;2.09;50.23;100766.06;4378405;32;34216;-73
2021/12/21 08:54:46;;;;;;;8.30;2.80;;;;;;;2.03;50.47;100771.12;4377302;32;33129;-73
2021/12/21 08:57:16;;;;;;;17.60;6.85;;;;;;;1.96;50.73;100760.81;4351727;32;32437;-73
2021/12/21 08:59:49;;;;;;;13.70;4.85;;;;;;;1.87;52.76;100774.28;4366963;32;34305;-74
2021/12/21 09:02:19;;;;;;;9.90;4.03;;;;;;;2.18;51.24;100772.56;4362288;32;32423;-73
2021/12/21 09:04:46;;;;;;;16.60;7.55;;;;;;;1.88;52.62;100773.28;4362371;32;34051;-73
2021/12/21 09:07:17;;;;;;;24.20;11.97;;;;;;;1.89;52.97;100783.13;4363151;32;33519;-73
2021/12/21 09:09:44;;;;;;;12.80;6.33;;;;;;;2.02;52.67;100782.94;4349977;32;35290;-73
2021/12/21 09:12:12;;;;;;;26.30;10.70;;;;;;;2.33;52.38;100781.25;4362186;32;34901;-73
2021/12/21 09:14:40;;;;;;;14.68;4.72;;;;;;;2.27;52.90;100783.47;4362477;32;33293;-73
2021/12/21 09:17:07;;;;;;;22.00;8.43;;;;;;;2.50;52.35;100786.09;4374834;32;33597;-73
2021/12/21 09:19:35;;;;;;;9.88;3.87;;;;;;;2.22;53.01;100776.72;4350066;32;34257;-73
2021/12/21 09:22:05;;;;;;;13.32;3.37;;;;;;;2.64;51.97;100783.91;4362772;32;34095;-73
2021/12/21 09:24:33;;;;;;;7.62;2.80;;;;;;;2.64;52.26;100785.75;4362835;32;33472;-73
2021/12/21 09:27:03;;;;;;;15.33;5.10;;;;;;;2.84;51.51;100779.47;4362367;32;34046;-74
2021/12/21 09:29:30;;;;;;;26.75;9.65;;;;;;;2.73;51.95;100776.81;4368355;32;34456;-73
2021/12/21 09:31:58;;;;;;;23.65;9.13;;;;;;;2.73;52.05;100775.97;4364420;32;33848;-73
2021/12/21 09:34:28;;;;;;;12.63;5.00;;;;;;;2.09;53.09;100779.59;4364562;32;33397;-73
2021/12/21 09:36:57;;;;;;;24.05;7.37;;;;;;;2.58;52.80;100767.34;4352381;32;34054;-74
2021/12/21 09:39:24;;;;;;;17.27;7.50;;;;;;;2.50;53.47;100767.97;4376598;32;34335;-74
2021/12/21 09:41:54;;;;;;;16.05;6.70;;;;;;;2.48;52.30;100774.53;4364009;32;33883;-74
2021/12/21 09:44:22;;;;;;;9.10;4.20;;;;;;;2.44;53.84;100773.94;4351822;32;33228;-73
2021/12/21 09:46:51;;;;;;;9.00;3.20;;;;;;;2.22;54.05;100769.47;4363649;32;33805;-73
2021/12/21 09:49:21;;;;;;;10.10;5.05;;;;;;;2.71;52.60;100772.53;4376243;32;34254;-73
2021/12/21 09:51:52;;;;;;;12.00;3.67;;;;;;;2.56;52.98;100766.59;4363758;32;33002;-74
2021/12/21 09:54:19;;;;;;;11.15;4.43;;;;;;;3.05;52.35;100759.63;4364188;32;33087;-73
2021/12/21 09:56:49;;;;;;;14.05;6.40;;;;;;;3.19;51.63;100764.69;4362377;32;33291;-73
2021/12/21 09:59:17;;;;;;;9.38;3.35;;;;;;;2.86;52.33;100755.81;4353003;32;34229;-74
2021/12/21 10:01:45;;;;;;;7.75;3.33;;;;;;;2.55;52.90;100745.91;4376350;32;33923;-73
2021/12/21 10:04:13;;;;;;;9.85;3.45;;;;;;;2.82;52.20;100754.34;4376396;32;33467;-73
2021/12/21 10:06:43;;;;;;;6.70;2.83;;;;;;;3.25;51.40;100748.69;4376365;32;34182;-73
2021/12/21 10:09:11;;;;;;;11.80;3.95;;;;;;;3.12;51.51;100756.22;4365924;32;34532;-73
2021/12/21 10:11:59;;;;;;;9.43;3.90;;;;;;;3.09;51.63;100748.38;4360733;32;33482;-73
2021/12/21 10:14:27;;;;;;;15.32;4.90;;;;;;;3.48;50.96;100746.66;4365970;32;32849;-73
2021/12/21 10:17:06;;;;;;;11.40;4.00;;;;;;;3.34;51.56;100746.16;4365608;32;33608;-74
2021/12/21 10:19:35;;;;;;;6.87;3.00;;;;;;;3.26;51.57;100744.12;4365821;32;34235;-74
2021/12/21 10:22:08;;;;;;;6.57;2.87;;;;;;;2.97;52.09;100741.31;4365841;32;34046;-74
2021/12/21 10:24:47;;;;;;;8.38;3.55;;;;;;;3.11;51.10;100731.97;4366023;32;34054;-74
2021/12/21 10:27:18;;;;;;;6.72;2.95;;;;;;;3.22;51.65;100731.87;4365823;32;33701;-75
2021/12/21 10:29:56;;;;;;;9.40;3.37;;;;;;;3.48;50.76;100735.81;4379011;32;35241;-75
2021/12/21 10:32:30;;;;;;;8.23;3.28;;;;;;;3.28;51.17;100723.16;4379291;32;34648;-73
2021/12/21 10:35:06;;;;;;;7.12;2.72;;;;;;;4.08;55.57;100727.63;4371332;32;32908;-73
2021/12/21 10:37:37;;;;;;;7.65;2.53;;;;;;;4.05;49.78;100717.03;4362553;32;33457;-73
2021/12/21 10:40:22;;;;;;;22.67;9.55;;;;;;;3.99;50.02;100707.59;4350579;32;32931;-73
2021/12/21 10:43:05;;;;;;;8.43;3.83;;;;;;;4.08;49.69;100716.75;4363852;32;34291;-74
2021/12/21 10:45:41;;;;;;;7.85;3.47;;;;;;;3.51;50.17;100704.81;4350814;32;33457;-73
2021/12/21 10:48:15;;;;;;;7.45;3.10;;;;;;;3.93;49.16;100708.16;4350633;32;33386;-73
2021/12/21 10:50:44;;;;;;;7.53;3.30;;;;;;;3.76;49.05;100704.31;4350979;32;32838;-74
2021/12/21 10:53:23;;;;;;;6.57;3.07;;;;;;;3.71;49.64;100711.16;4350558;32;32626;-74
2021/12/21 10:56:06;;;;;;;6.50;2.97;;;;;;;4.05;50.67;100700.75;4362865;32;33194;-74
2021/12/21 10:58:41;;;;;;;16.50;3.42;;;;;;;3.79;50.06;100695.88;4350903;32;33497;-73
2021/12/21 11:01:13;;;;;;;7.15;3.40;;;;;;;3.53;52.12;100705.53;4376106;32;34436;-73
2021/12/21 11:03:50;;;;;;;6.47;2.42;;;;;;;3.33;50.32;100718.19;4377493;32;33871;-73
2021/12/21 11:06:35;;;;;;;5.75;2.75;;;;;;;3.67;49.63;100707.00;4377675;32;34240;-74
2021/12/21 11:09:04;;;;;;;8.15;3.45;;;;;;;4.00;48.63;100694.87;4366461;32;33700;-73
2021/12/21 11:11:43;;;;;;;7.75;3.05;;;;;;;3.73;48.83;100690.16;4353643;32;35153;-73
2021/12/21 11:14:14;;;;;;;6.80;3.42;;;;;;;3.63;49.26;100685.56;4377805;32;33933;-73
2021/12/21 11:16:47;;;;;;;10.40;3.37;;;;;;;4.11;48.82;100689.31;4378194;32;34209;-73
2021/12/21 11:19:17;;;;;;;7.53;3.25;;;;;;;4.22;48.79;100687.31;4364949;32;34605;-73
2021/12/21 11:21:45;;;;;;;15.57;7.47;;;;;;;4.39;48.30;100677.56;4359936;32;33168;-73
2021/12/21 11:24:16;;;;;;;17.52;8.45;;;;;;;4.06;48.73;100676.16;4381693;32;33983;-73
2021/12/21 11:26:46;;;;;;;10.65;4.80;;;;;;;3.86;49.08;100669.88;4385376;32;34068;-73
2021/12/21 11:29:19;;;;;;;8.70;3.28;;;;;;;3.58;49.68;100676.97;4392853;32;33665;-73
2021/12/21 11:31:49;;;;;;;12.30;3.62;;;;;;;3.96;48.21;100672.56;4393863;32;35190;-73
2021/12/21 11:34:20;;;;;;;8.05;2.85;;;;;;;4.26;47.89;100667.00;4392594;32;34750;-73
2021/12/21 11:39:38;;;;;;;7.40;3.55;;;;;;;4.14;47.82;100667.28;4392745;32;34123;-73
2021/12/21 11:42:09;;;;;;;6.70;3.17;;;;;;;4.21;48.17;100672.00;4392756;32;34400;-73
2021/12/21 11:44:53;;;;;;;12.50;5.68;;;;;;;4.31;47.64;100674.72;4392776;32;34586;-73
2021/12/21 11:47:48;;;;;;;11.20;4.57;;;;;;;4.23;47.02;100682.72;4392623;32;33569;-73
2021/12/21 11:50:16;;;;;;;17.12;6.95;;;;;;;4.20;47.24;100673.00;4387283;32;34009;-73
2021/12/21 11:52:45;;;;;;;37.83;17.73;;;;;;;4.34;47.00;100674.44;4370689;32;33230;-73
2021/12/21 11:55:14;;;;;;;10.80;4.95;;;;;;;4.44;46.78;100666.25;4381347;32;33578;-73
2021/12/21 11:57:45;;;;;;;8.40;3.90;;;;;;;3.74;48.41;100662.00;4370995;32;32105;-73
2021/12/21 12:00:17;;;;;;;6.40;3.45;;;;;;;3.96;48.55;100661.72;4386816;32;34498;-73
2021/12/21 12:02:48;;;;;;;8.70;3.00;;;;;;;4.25;48.05;100659.00;4405084;32;35272;-73
2021/12/21 12:05:27;;;;;;;6.57;3.17;;;;;;;4.06;48.61;100654.41;4385910;32;33963;-73
2021/12/21 12:08:10;;;;;;;6.97;3.37;;;;;;;4.32;48.08;100664.69;4371298;32;33418;-73
2021/12/21 12:10:46;;;;;;;10.40;4.85;;;;;;;4.25;47.84;100654.41;4369218;32;34163;-73
2021/12/21 12:13:16;;;;;;;;;;;;;;;3.77;48.56;100656.28;4382382;32;34099;-73
2021/12/21 12:15:57;;;;;;;10.98;4.87;;;;;;;4.08;48.35;100660.56;4370526;32;33358;-73
2021/12/21 12:18:32;;;;;;;8.38;4.32;;;;;;;3.99;48.40;100664.13;4364362;32;33983;-73
2021/12/21 12:21:12;;;;;;;14.93;6.78;;;;;;;4.28;47.68;100659.56;4363610;32;33858;-73
2021/12/21 12:23:48;;;;;;;9.82;3.97;;;;;;;4.51;47.40;100646.50;4363572;32;35300;-73
2021/12/21 12:26:23;;;;;;;9.90;4.55;;;;;;;3.97;47.65;100650.69;4356765;32;34643;-73
2021/12/21 12:28:53;;;;;;;8.68;4.18;;;;;;;4.04;48.04;100648.28;4382077;32;31750;-73
2021/12/21 12:31:36;;;;;;;7.78;3.45;;;;;;;3.96;48.62;100653.56;4368441;32;32304;-73
2021/12/21 12:34:04;;;;;;;7.90;2.95;;;;;;;3.70;48.81;100653.28;4362171;32;34379;-73
2021/12/21 12:36:38;;;;;;;8.10;3.35;;;;;;;3.70;48.78;100649.72;4352393;32;32686;-73
2021/12/21 12:39:08;;;;;;;6.43;2.92;;;;;;;3.72;48.05;100655.88;4356214;32;32785;-73
2021/12/21 12:41:43;;;;;;;7.45;3.67;;;;;;;4.02;46.41;100661.13;4377337;32;34582;-73
2021/12/21 12:44:22;;;;;;;6.45;2.90;;;;;;;4.58;45.82;100657.63;4379857;32;35041;-73
2021/12/21 12:46:53;;;;;;;6.55;2.75;;;;;;;4.47;45.17;100650.53;4366958;32;32487;-73
2021/12/21 12:49:22;;;;;;;9.55;4.43;;;;;;;4.71;44.62;100650.00;4379980;32;34225;-73
2021/12/21 12:51:50;;;;;;;14.77;6.00;;;;;;;4.38;45.20;100650.53;4367469;32;31743;-73
2021/12/21 12:54:21;;;;;;;9.55;3.95;;;;;;;4.42;45.15;100654.69;4380071;32;35231;-73
2021/12/21 12:56:53;;;;;;;11.93;3.70;;;;;;;4.38;45.46;100651.41;4373496;32;34709;-73